sensor_id;sensor_type;location;lat;lon;timestamp;P1;durP1;ratioP1;P2;durP2;ratioP2
64868;SDS011;51349;52.424;10.840;2024-03-29T00:03:07;2.33;;;1.10;;
64868;SDS011;51349;52.424;10.840;2024-03-29T00:08:09;1.13;;;0.83;;
64868;SDS011;51349;52.424;10.840;2024-03-29T00:13:10;2.33;;;1.10;;
64868;SDS011;51349;52.424;10.840;2024-03-29T00:18:11;1.43;;;1.20;;
64868;SDS011;51349;52.424;10.840;2024-03-29T00:23:11;1.37;;;1.27;;
64868;SDS011;51349;52.424;10.840;2024-03-29T00:28:12;0.80;;;0.80;;
64868;SDS011;51349;52.424;10.840;2024-03-29T00:33:13;2.30;;;1.00;;
64868;SDS011;51349;52.424;10.840;2024-03-29T00:38:13;3.13;;;0.67;;
64868;SDS011;51349;52.424;10.840;2024-03-29T00:43:14;0.83;;;0.80;;
64868;SDS011;51349;52.424;10.840;2024-03-29T00:48:15;1.60;;;0.60;;
64868;SDS011;51349;52.424;10.840;2024-03-29T00:53:17;1.27;;;0.63;;
64868;SDS011;51349;52.424;10.840;2024-03-29T00:58:18;1.87;;;0.70;;
64868;SDS011;51349;52.424;10.840;2024-03-29T01:03:19;1.00;;;0.90;;
64868;SDS011;51349;52.424;10.840;2024-03-29T01:08:20;0.70;;;0.63;;
64868;SDS011;51349;52.424;10.840;2024-03-29T01:13:21;0.63;;;0.63;;
64868;SDS011;51349;52.424;10.840;2024-03-29T01:18:21;1.43;;;0.90;;
64868;SDS011;51349;52.424;10.840;2024-03-29T01:23:22;1.43;;;1.10;;
64868;SDS011;51349;52.424;10.840;2024-03-29T01:28:23;2.67;;;0.97;;
64868;SDS011;51349;52.424;10.840;2024-03-29T01:33:23;1.30;;;1.10;;
64868;SDS011;51349;52.424;10.840;2024-03-29T01:38:24;1.77;;;1.10;;
64868;SDS011;51349;52.424;10.840;2024-03-29T01:43:25;1.33;;;0.93;;
64868;SDS011;51349;52.424;10.840;2024-03-29T01:48:28;4.63;;;0.90;;
64868;SDS011;51349;52.424;10.840;2024-03-29T01:53:29;0.63;;;0.63;;
64868;SDS011;51349;52.424;10.840;2024-03-29T01:58:31;1.00;;;0.83;;
64868;SDS011;51349;52.424;10.840;2024-03-29T02:03:32;0.70;;;0.70;;
64868;SDS011;51349;52.424;10.840;2024-03-29T02:08:33;0.70;;;0.70;;
64868;SDS011;51349;52.424;10.840;2024-03-29T02:13:34;1.53;;;0.80;;
64868;SDS011;51349;52.424;10.840;2024-03-29T02:18:35;1.73;;;0.80;;
64868;SDS011;51349;52.424;10.840;2024-03-29T02:23:36;1.87;;;0.77;;
64868;SDS011;51349;52.424;10.840;2024-03-29T02:28:40;1.13;;;0.90;;
64868;SDS011;51349;52.424;10.840;2024-03-29T02:33:40;2.23;;;0.90;;
64868;SDS011;51349;52.424;10.840;2024-03-29T02:38:41;5.33;;;1.10;;
64868;SDS011;51349;52.424;10.840;2024-03-29T02:43:42;2.40;;;0.60;;
64868;SDS011;51349;52.424;10.840;2024-03-29T02:48:42;3.50;;;0.83;;
64868;SDS011;51349;52.424;10.840;2024-03-29T02:53:43;1.90;;;0.87;;
64868;SDS011;51349;52.424;10.840;2024-03-29T02:58:44;1.33;;;0.53;;
64868;SDS011;51349;52.424;10.840;2024-03-29T03:03:44;1.43;;;0.67;;
64868;SDS011;51349;52.424;10.840;2024-03-29T03:08:45;1.07;;;0.50;;
64868;SDS011;51349;52.424;10.840;2024-03-29T03:14:04;0.90;;;0.70;;
64868;SDS011;51349;52.424;10.840;2024-03-29T03:19:05;1.53;;;0.70;;
64868;SDS011;51349;52.424;10.840;2024-03-29T03:24:05;2.37;;;0.87;;
64868;SDS011;51349;52.424;10.840;2024-03-29T03:29:06;1.47;;;0.67;;
64868;SDS011;51349;52.424;10.840;2024-03-29T03:34:09;2.90;;;0.87;;
64868;SDS011;51349;52.424;10.840;2024-03-29T03:39:10;1.17;;;0.77;;
64868;SDS011;51349;52.424;10.840;2024-03-29T03:44:10;1.67;;;0.73;;
64868;SDS011;51349;52.424;10.840;2024-03-29T03:49:11;1.83;;;0.80;;
64868;SDS011;51349;52.424;10.840;2024-03-29T03:54:11;2.50;;;0.80;;
64868;SDS011;51349;52.424;10.840;2024-03-29T03:59:14;0.77;;;0.77;;
64868;SDS011;51349;52.424;10.840;2024-03-29T04:04:15;1.50;;;0.70;;
64868;SDS011;51349;52.424;10.840;2024-03-29T04:09:15;0.73;;;0.70;;
64868;SDS011;51349;52.424;10.840;2024-03-29T04:14:16;1.67;;;0.83;;
64868;SDS011;51349;52.424;10.840;2024-03-29T04:19:17;1.23;;;0.70;;
64868;SDS011;51349;52.424;10.840;2024-03-29T04:24:17;1.60;;;0.93;;
64868;SDS011;51349;52.424;10.840;2024-03-29T04:29:18;1.67;;;0.90;;
64868;SDS011;51349;52.424;10.840;2024-03-29T04:34:19;0.80;;;0.80;;
64868;SDS011;51349;52.424;10.840;2024-03-29T04:39:19;0.90;;;0.90;;
64868;SDS011;51349;52.424;10.840;2024-03-29T04:44:24;1.40;;;0.80;;
64868;SDS011;51349;52.424;10.840;2024-03-29T04:49:25;1.73;;;0.90;;
64868;SDS011;51349;52.424;10.840;2024-03-29T04:54:33;2.00;;;1.10;;
64868;SDS011;51349;52.424;10.840;2024-03-29T04:59:34;2.43;;;2.20;;
64868;SDS011;51349;52.424;10.840;2024-03-29T05:04:35;1.17;;;0.83;;
64868;SDS011;51349;52.424;10.840;2024-03-29T05:09:35;1.83;;;0.90;;
64868;SDS011;51349;52.424;10.840;2024-03-29T05:14:36;2.00;;;0.87;;
64868;SDS011;51349;52.424;10.840;2024-03-29T05:19:37;2.07;;;1.00;;
64868;SDS011;51349;52.424;10.840;2024-03-29T05:24:38;1.50;;;1.00;;
64868;SDS011;51349;52.424;10.840;2024-03-29T05:29:40;1.40;;;0.83;;
64868;SDS011;51349;52.424;10.840;2024-03-29T05:34:41;1.30;;;1.20;;
64868;SDS011;51349;52.424;10.840;2024-03-29T05:39:42;1.83;;;1.03;;
64868;SDS011;51349;52.424;10.840;2024-03-29T05:44:42;1.40;;;1.30;;
64868;SDS011;51349;52.424;10.840;2024-03-29T05:49:43;1.90;;;1.30;;
64868;SDS011;51349;52.424;10.840;2024-03-29T05:54:44;0.93;;;0.77;;
64868;SDS011;51349;52.424;10.840;2024-03-29T05:59:45;0.87;;;0.87;;
64868;SDS011;51349;52.424;10.840;2024-03-29T06:04:46;2.97;;;0.97;;
64868;SDS011;51349;52.424;10.840;2024-03-29T06:09:47;2.80;;;0.83;;
64868;SDS011;51349;52.424;10.840;2024-03-29T06:14:48;0.97;;;0.73;;
64868;SDS011;51349;52.424;10.840;2024-03-29T06:20:07;0.73;;;0.73;;
64868;SDS011;51349;52.424;10.840;2024-03-29T06:25:08;1.00;;;0.90;;
64868;SDS011;51349;52.424;10.840;2024-03-29T06:30:09;2.50;;;1.00;;
64868;SDS011;51349;52.424;10.840;2024-03-29T06:35:11;3.47;;;1.00;;
64868;SDS011;51349;52.424;10.840;2024-03-29T06:40:12;2.77;;;0.90;;
64868;SDS011;51349;52.424;10.840;2024-03-29T06:45:13;2.30;;;1.00;;
64868;SDS011;51349;52.424;10.840;2024-03-29T06:50:14;1.77;;;1.20;;
64868;SDS011;51349;52.424;10.840;2024-03-29T06:55:14;2.00;;;0.90;;
64868;SDS011;51349;52.424;10.840;2024-03-29T07:00:15;2.33;;;1.10;;
64868;SDS011;51349;52.424;10.840;2024-03-29T07:05:19;2.43;;;2.00;;
64868;SDS011;51349;52.424;10.840;2024-03-29T07:10:20;1.10;;;0.90;;
64868;SDS011;51349;52.424;10.840;2024-03-29T07:15:20;1.43;;;1.00;;
64868;SDS011;51349;52.424;10.840;2024-03-29T07:20:21;1.43;;;1.10;;
64868;SDS011;51349;52.424;10.840;2024-03-29T07:25:22;1.20;;;0.90;;
64868;SDS011;51349;52.424;10.840;2024-03-29T07:30:22;1.70;;;1.10;;
64868;SDS011;51349;52.424;10.840;2024-03-29T07:35:23;1.27;;;1.17;;
64868;SDS011;51349;52.424;10.840;2024-03-29T07:40:24;1.50;;;1.20;;
64868;SDS011;51349;52.424;10.840;2024-03-29T07:45:25;1.77;;;1.20;;
64868;SDS011;51349;52.424;10.840;2024-03-29T07:50:27;2.77;;;1.50;;
64868;SDS011;51349;52.424;10.840;2024-03-29T07:55:28;2.30;;;1.20;;
64868;SDS011;51349;52.424;10.840;2024-03-29T08:00:30;4.33;;;2.43;;
64868;SDS011;51349;52.424;10.840;2024-03-29T08:05:32;4.13;;;1.83;;
64868;SDS011;51349;52.424;10.840;2024-03-29T08:10:33;0.93;;;0.93;;
64868;SDS011;51349;52.424;10.840;2024-03-29T08:15:34;1.70;;;1.00;;
64868;SDS011;51349;52.424;10.840;2024-03-29T08:20:35;1.37;;;1.27;;
64868;SDS011;51349;52.424;10.840;2024-03-29T08:25:35;2.53;;;0.90;;
64868;SDS011;51349;52.424;10.840;2024-03-29T08:30:37;1.43;;;1.33;;
64868;SDS011;51349;52.424;10.840;2024-03-29T08:35:37;3.40;;;1.00;;
64868;SDS011;51349;52.424;10.840;2024-03-29T08:40:43;1.40;;;1.00;;
64868;SDS011;51349;52.424;10.840;2024-03-29T08:45:46;1.73;;;1.00;;
64868;SDS011;51349;52.424;10.840;2024-03-29T08:50:48;1.20;;;0.97;;
64868;SDS011;51349;52.424;10.840;2024-03-29T08:55:48;3.47;;;1.03;;
64868;SDS011;51349;52.424;10.840;2024-03-29T09:00:56;2.23;;;1.10;;
64868;SDS011;51349;52.424;10.840;2024-03-29T09:05:59;1.30;;;1.20;;
64868;SDS011;51349;52.424;10.840;2024-03-29T09:11:00;0.60;;;0.60;;
64868;SDS011;51349;52.424;10.840;2024-03-29T09:16:03;0.90;;;0.90;;
64868;SDS011;51349;52.424;10.840;2024-03-29T09:21:04;1.37;;;0.90;;
64868;SDS011;51349;52.424;10.840;2024-03-29T09:26:05;1.03;;;1.00;;
64868;SDS011;51349;52.424;10.840;2024-03-29T09:31:06;0.93;;;0.80;;
64868;SDS011;51349;52.424;10.840;2024-03-29T09:36:07;1.43;;;0.80;;
64868;SDS011;51349;52.424;10.840;2024-03-29T09:41:13;1.40;;;1.03;;
64868;SDS011;51349;52.424;10.840;2024-03-29T09:46:15;1.50;;;1.00;;
64868;SDS011;51349;52.424;10.840;2024-03-29T09:51:16;1.88;;;0.90;;
64868;SDS011;51349;52.424;10.840;2024-03-29T09:56:17;1.27;;;0.80;;
64868;SDS011;51349;52.424;10.840;2024-03-29T10:01:18;1.75;;;1.00;;
64868;SDS011;51349;52.424;10.840;2024-03-29T10:06:19;0.83;;;0.83;;
64868;SDS011;51349;52.424;10.840;2024-03-29T10:11:24;1.23;;;1.00;;
64868;SDS011;51349;52.424;10.840;2024-03-29T10:16:25;0.80;;;0.80;;
64868;SDS011;51349;52.424;10.840;2024-03-29T10:21:26;1.45;;;0.88;;
64868;SDS011;51349;52.424;10.840;2024-03-29T10:26:27;1.52;;;0.80;;
64868;SDS011;51349;52.424;10.840;2024-03-29T10:31:28;0.70;;;0.70;;
64868;SDS011;51349;52.424;10.840;2024-03-29T10:36:34;1.50;;;1.00;;
64868;SDS011;51349;52.424;10.840;2024-03-29T10:41:35;1.00;;;0.80;;
64868;SDS011;51349;52.424;10.840;2024-03-29T10:46:37;0.68;;;0.68;;
64868;SDS011;51349;52.424;10.840;2024-03-29T10:51:41;0.65;;;0.65;;
64868;SDS011;51349;52.424;10.840;2024-03-29T10:56:42;0.60;;;0.60;;
64868;SDS011;51349;52.424;10.840;2024-03-29T11:01:58;0.70;;;0.70;;
64868;SDS011;51349;52.424;10.840;2024-03-29T11:18:18;0.50;;;0.50;;
64868;SDS011;51349;52.424;10.840;2024-03-29T11:23:21;0.60;;;0.60;;
64868;SDS011;51349;52.424;10.840;2024-03-29T11:28:26;0.45;;;0.40;;
64868;SDS011;51349;52.424;10.840;2024-03-29T11:38:38;0.73;;;0.73;;
64868;SDS011;51349;52.424;10.840;2024-03-29T11:43:39;0.40;;;0.40;;
64868;SDS011;51349;52.424;10.840;2024-03-29T11:48:41;1.38;;;0.60;;
64868;SDS011;51349;52.424;10.840;2024-03-29T11:53:44;0.80;;;0.70;;
64868;SDS011;51349;52.424;10.840;2024-03-29T11:58:45;1.35;;;1.25;;
64868;SDS011;51349;52.424;10.840;2024-03-29T12:03:48;0.68;;;0.68;;
64868;SDS011;51349;52.424;10.840;2024-03-29T12:08:50;0.60;;;0.60;;
64868;SDS011;51349;52.424;10.840;2024-03-29T12:13:53;0.57;;;0.57;;
64868;SDS011;51349;52.424;10.840;2024-03-29T12:18:53;0.60;;;0.60;;
64868;SDS011;51349;52.424;10.840;2024-03-29T12:23:54;3.08;;;2.78;;
64868;SDS011;51349;52.424;10.840;2024-03-29T12:28:55;0.63;;;0.63;;
64868;SDS011;51349;52.424;10.840;2024-03-29T12:33:56;1.42;;;1.33;;
64868;SDS011;51349;52.424;10.840;2024-03-29T12:38:58;0.60;;;0.60;;
64868;SDS011;51349;52.424;10.840;2024-03-29T12:44:03;0.50;;;0.50;;
64868;SDS011;51349;52.424;10.840;2024-03-29T12:49:04;1.05;;;0.95;;
64868;SDS011;51349;52.424;10.840;2024-03-29T12:54:05;1.20;;;0.68;;
64868;SDS011;51349;52.424;10.840;2024-03-29T12:59:05;0.60;;;0.60;;
64868;SDS011;51349;52.424;10.840;2024-03-29T13:04:06;0.52;;;0.52;;
64868;SDS011;51349;52.424;10.840;2024-03-29T13:09:07;0.50;;;0.50;;
64868;SDS011;51349;52.424;10.840;2024-03-29T13:14:08;0.55;;;0.50;;
64868;SDS011;51349;52.424;10.840;2024-03-29T13:19:09;0.65;;;0.65;;
64868;SDS011;51349;52.424;10.840;2024-03-29T13:24:09;1.17;;;0.63;;
64868;SDS011;51349;52.424;10.840;2024-03-29T13:29:10;0.63;;;0.63;;
64868;SDS011;51349;52.424;10.840;2024-03-29T13:34:13;0.60;;;0.60;;
64868;SDS011;51349;52.424;10.840;2024-03-29T13:39:14;0.98;;;0.95;;
64868;SDS011;51349;52.424;10.840;2024-03-29T13:44:15;1.80;;;0.60;;
64868;SDS011;51349;52.424;10.840;2024-03-29T13:49:17;1.23;;;0.70;;
64868;SDS011;51349;52.424;10.840;2024-03-29T13:54:20;0.40;;;0.40;;
64868;SDS011;51349;52.424;10.840;2024-03-29T13:59:21;0.50;;;0.50;;
64868;SDS011;51349;52.424;10.840;2024-03-29T14:04:22;0.70;;;0.70;;
64868;SDS011;51349;52.424;10.840;2024-03-29T14:09:24;0.55;;;0.55;;
64868;SDS011;51349;52.424;10.840;2024-03-29T14:14:25;0.95;;;0.60;;
64868;SDS011;51349;52.424;10.840;2024-03-29T14:19:25;0.93;;;0.63;;
64868;SDS011;51349;52.424;10.840;2024-03-29T14:24:28;0.75;;;0.75;;
64868;SDS011;51349;52.424;10.840;2024-03-29T14:29:31;0.50;;;0.50;;
64868;SDS011;51349;52.424;10.840;2024-03-29T14:34:32;0.60;;;0.60;;
64868;SDS011;51349;52.424;10.840;2024-03-29T14:39:37;0.40;;;0.40;;
64868;SDS011;51349;52.424;10.840;2024-03-29T14:44:38;0.73;;;0.70;;
64868;SDS011;51349;52.424;10.840;2024-03-29T14:49:39;4.13;;;3.47;;
64868;SDS011;51349;52.424;10.840;2024-03-29T14:54:40;1.40;;;1.40;;
64868;SDS011;51349;52.424;10.840;2024-03-29T14:59:40;0.80;;;0.80;;
64868;SDS011;51349;52.424;10.840;2024-03-29T15:04:41;0.88;;;0.88;;
64868;SDS011;51349;52.424;10.840;2024-03-29T15:09:42;0.70;;;0.70;;
64868;SDS011;51349;52.424;10.840;2024-03-29T15:14:43;1.02;;;0.88;;
64868;SDS011;51349;52.424;10.840;2024-03-29T15:19:47;0.90;;;0.90;;
64868;SDS011;51349;52.424;10.840;2024-03-29T15:24:50;0.73;;;0.73;;
64868;SDS011;51349;52.424;10.840;2024-03-29T15:29:54;1.75;;;1.30;;
64868;SDS011;51349;52.424;10.840;2024-03-29T15:34:55;1.23;;;1.13;;
64868;SDS011;51349;52.424;10.840;2024-03-29T15:39:56;0.68;;;0.68;;
64868;SDS011;51349;52.424;10.840;2024-03-29T15:44:57;0.88;;;0.88;;
64868;SDS011;51349;52.424;10.840;2024-03-29T15:49:57;0.82;;;0.82;;
64868;SDS011;51349;52.424;10.840;2024-03-29T15:54:58;0.60;;;0.60;;
64868;SDS011;51349;52.424;10.840;2024-03-29T15:59:59;0.60;;;0.60;;
64868;SDS011;51349;52.424;10.840;2024-03-29T16:04:59;0.85;;;0.85;;
64868;SDS011;51349;52.424;10.840;2024-03-29T16:10:00;1.67;;;0.57;;
64868;SDS011;51349;52.424;10.840;2024-03-29T16:15:02;0.85;;;0.77;;
64868;SDS011;51349;52.424;10.840;2024-03-29T16:20:03;0.80;;;0.80;;
64868;SDS011;51349;52.424;10.840;2024-03-29T16:25:04;1.20;;;1.10;;
64868;SDS011;51349;52.424;10.840;2024-03-29T16:30:05;0.88;;;0.88;;
64868;SDS011;51349;52.424;10.840;2024-03-29T16:35:07;0.95;;;0.90;;
64868;SDS011;51349;52.424;10.840;2024-03-29T16:40:08;0.85;;;0.85;;
64868;SDS011;51349;52.424;10.840;2024-03-29T16:45:09;1.45;;;1.02;;
64868;SDS011;51349;52.424;10.840;2024-03-29T16:50:09;1.42;;;1.17;;
64868;SDS011;51349;52.424;10.840;2024-03-29T16:55:10;1.05;;;1.05;;
64868;SDS011;51349;52.424;10.840;2024-03-29T17:00:11;0.75;;;0.75;;
64868;SDS011;51349;52.424;10.840;2024-03-29T17:05:12;0.98;;;0.90;;
64868;SDS011;51349;52.424;10.840;2024-03-29T17:10:13;1.45;;;0.80;;
64868;SDS011;51349;52.424;10.840;2024-03-29T17:15:13;1.02;;;0.85;;
64868;SDS011;51349;52.424;10.840;2024-03-29T17:20:14;1.02;;;0.88;;
64868;SDS011;51349;52.424;10.840;2024-03-29T17:25:15;0.90;;;0.80;;
64868;SDS011;51349;52.424;10.840;2024-03-29T17:30:15;0.70;;;0.70;;
64868;SDS011;51349;52.424;10.840;2024-03-29T17:35:16;0.85;;;0.75;;
64868;SDS011;51349;52.424;10.840;2024-03-29T17:40:17;0.95;;;0.95;;
64868;SDS011;51349;52.424;10.840;2024-03-29T17:45:18;0.73;;;0.70;;
64868;SDS011;51349;52.424;10.840;2024-03-29T17:50:19;0.98;;;0.93;;
64868;SDS011;51349;52.424;10.840;2024-03-29T17:55:20;1.00;;;1.00;;
64868;SDS011;51349;52.424;10.840;2024-03-29T18:00:21;1.33;;;1.23;;
64868;SDS011;51349;52.424;10.840;2024-03-29T18:05:21;3.72;;;2.40;;
64868;SDS011;51349;52.424;10.840;2024-03-29T18:10:24;1.48;;;1.40;;
64868;SDS011;51349;52.424;10.840;2024-03-29T18:15:25;1.40;;;1.30;;
64868;SDS011;51349;52.424;10.840;2024-03-29T18:20:26;2.70;;;1.00;;
64868;SDS011;51349;52.424;10.840;2024-03-29T18:25:27;2.35;;;1.00;;
64868;SDS011;51349;52.424;10.840;2024-03-29T18:30:27;1.10;;;1.00;;
64868;SDS011;51349;52.424;10.840;2024-03-29T18:35:30;1.05;;;0.95;;
64868;SDS011;51349;52.424;10.840;2024-03-29T18:40:31;1.20;;;1.10;;
64868;SDS011;51349;52.424;10.840;2024-03-29T18:45:31;1.10;;;1.10;;
64868;SDS011;51349;52.424;10.840;2024-03-29T18:50:36;1.58;;;1.48;;
64868;SDS011;51349;52.424;10.840;2024-03-29T18:55:37;1.52;;;1.42;;
64868;SDS011;51349;52.424;10.840;2024-03-29T19:00:38;1.67;;;1.58;;
64868;SDS011;51349;52.424;10.840;2024-03-29T19:05:38;0.90;;;0.90;;
64868;SDS011;51349;52.424;10.840;2024-03-29T19:10:39;0.77;;;0.77;;
64868;SDS011;51349;52.424;10.840;2024-03-29T19:15:40;1.00;;;1.00;;
64868;SDS011;51349;52.424;10.840;2024-03-29T19:20:41;0.85;;;0.85;;
64868;SDS011;51349;52.424;10.840;2024-03-29T19:25:42;0.93;;;0.93;;
64868;SDS011;51349;52.424;10.840;2024-03-29T19:30:42;1.05;;;1.05;;
64868;SDS011;51349;52.424;10.840;2024-03-29T19:35:43;1.83;;;1.58;;
64868;SDS011;51349;52.424;10.840;2024-03-29T19:40:44;1.13;;;1.13;;
64868;SDS011;51349;52.424;10.840;2024-03-29T19:45:45;0.95;;;0.95;;
64868;SDS011;51349;52.424;10.840;2024-03-29T19:50:45;1.00;;;1.00;;
64868;SDS011;51349;52.424;10.840;2024-03-29T19:55:52;1.88;;;1.75;;
64868;SDS011;51349;52.424;10.840;2024-03-29T20:00:57;3.28;;;3.00;;
64868;SDS011;51349;52.424;10.840;2024-03-29T20:05:57;1.60;;;1.50;;
64868;SDS011;51349;52.424;10.840;2024-03-29T20:10:58;2.08;;;1.98;;
64868;SDS011;51349;52.424;10.840;2024-03-29T20:15:59;1.45;;;1.30;;
64868;SDS011;51349;52.424;10.840;2024-03-29T20:21:00;1.13;;;1.13;;
64868;SDS011;51349;52.424;10.840;2024-03-29T20:26:01;1.10;;;1.10;;
64868;SDS011;51349;52.424;10.840;2024-03-29T20:31:03;0.98;;;0.98;;
64868;SDS011;51349;52.424;10.840;2024-03-29T20:36:07;1.20;;;1.10;;
64868;SDS011;51349;52.424;10.840;2024-03-29T20:41:08;1.30;;;1.20;;
64868;SDS011;51349;52.424;10.840;2024-03-29T20:46:09;1.80;;;1.52;;
64868;SDS011;51349;52.424;10.840;2024-03-29T20:51:09;3.00;;;2.55;;
64868;SDS011;51349;52.424;10.840;2024-03-29T20:56:10;2.00;;;1.90;;
64868;SDS011;51349;52.424;10.840;2024-03-29T21:01:11;2.28;;;1.50;;
64868;SDS011;51349;52.424;10.840;2024-03-29T21:06:18;1.30;;;1.25;;
64868;SDS011;51349;52.424;10.840;2024-03-29T21:11:18;1.30;;;1.20;;
64868;SDS011;51349;52.424;10.840;2024-03-29T21:16:19;1.55;;;1.20;;
64868;SDS011;51349;52.424;10.840;2024-03-29T21:21:20;3.50;;;1.85;;
64868;SDS011;51349;52.424;10.840;2024-03-29T21:26:21;2.05;;;1.02;;
64868;SDS011;51349;52.424;10.840;2024-03-29T21:31:22;1.20;;;1.10;;
64868;SDS011;51349;52.424;10.840;2024-03-29T21:36:23;1.60;;;1.40;;
64868;SDS011;51349;52.424;10.840;2024-03-29T21:41:23;1.52;;;1.23;;
64868;SDS011;51349;52.424;10.840;2024-03-29T21:46:26;1.20;;;1.20;;
64868;SDS011;51349;52.424;10.840;2024-03-29T21:51:27;1.88;;;1.25;;
64868;SDS011;51349;52.424;10.840;2024-03-29T21:56:28;1.20;;;1.20;;
64868;SDS011;51349;52.424;10.840;2024-03-29T22:01:29;1.15;;;1.08;;
64868;SDS011;51349;52.424;10.840;2024-03-29T22:06:31;1.95;;;1.75;;
64868;SDS011;51349;52.424;10.840;2024-03-29T22:11:34;2.55;;;2.35;;
64868;SDS011;51349;52.424;10.840;2024-03-29T22:16:34;2.58;;;1.80;;
64868;SDS011;51349;52.424;10.840;2024-03-29T22:21:35;1.90;;;1.80;;
64868;SDS011;51349;52.424;10.840;2024-03-29T22:26:36;2.75;;;2.47;;
64868;SDS011;51349;52.424;10.840;2024-03-29T22:31:38;2.00;;;1.90;;
64868;SDS011;51349;52.424;10.840;2024-03-29T22:36:41;3.67;;;2.83;;
64868;SDS011;51349;52.424;10.840;2024-03-29T22:41:41;2.67;;;1.90;;
64868;SDS011;51349;52.424;10.840;2024-03-29T22:46:42;1.60;;;1.50;;
64868;SDS011;51349;52.424;10.840;2024-03-29T22:51:43;1.90;;;1.80;;
64868;SDS011;51349;52.424;10.840;2024-03-29T22:56:45;3.70;;;3.28;;
64868;SDS011;51349;52.424;10.840;2024-03-29T23:01:46;3.45;;;3.15;;
64868;SDS011;51349;52.424;10.840;2024-03-29T23:06:46;2.20;;;2.10;;
64868;SDS011;51349;52.424;10.840;2024-03-29T23:11:47;2.08;;;1.98;;
64868;SDS011;51349;52.424;10.840;2024-03-29T23:16:47;2.30;;;2.10;;
64868;SDS011;51349;52.424;10.840;2024-03-29T23:21:48;1.70;;;1.60;;
64868;SDS011;51349;52.424;10.840;2024-03-29T23:26:49;2.00;;;1.70;;
64868;SDS011;51349;52.424;10.840;2024-03-29T23:31:50;1.65;;;1.55;;
64868;SDS011;51349;52.424;10.840;2024-03-29T23:36:50;1.90;;;1.80;;
64868;SDS011;51349;52.424;10.840;2024-03-29T23:41:51;2.72;;;1.60;;
64868;SDS011;51349;52.424;10.840;2024-03-29T23:46:51;2.90;;;2.10;;
64868;SDS011;51349;52.424;10.840;2024-03-29T23:51:52;3.08;;;2.22;;
64868;SDS011;51349;52.424;10.840;2024-03-29T23:56:53;2.42;;;2.15;;
